sensor_id;sensor_type;location;lat;lon;timestamp;P1;durP1;ratioP1;P2;durP2;ratioP2
14292;SDS011;62290;59.420;17.842;2023-02-28T00:00:35;0.90;;;0.52;;
14292;SDS011;62290;59.420;17.842;2023-02-28T00:03:03;1.30;;;0.60;;
14292;SDS011;62290;59.420;17.842;2023-02-28T00:05:33;0.55;;;0.35;;
14292;SDS011;62290;59.420;17.842;2023-02-28T00:08:01;2.08;;;0.30;;
14292;SDS011;62290;59.420;17.842;2023-02-28T00:10:30;0.57;;;0.50;;
14292;SDS011;62290;59.420;17.842;2023-02-28T00:12:59;0.30;;;0.30;;
14292;SDS011;62290;59.420;17.842;2023-02-28T00:15:29;0.30;;;0.30;;
14292;SDS011;62290;59.420;17.842;2023-02-28T00:17:58;0.73;;;0.40;;
14292;SDS011;62290;59.420;17.842;2023-02-28T00:20:26;1.08;;;0.30;;
14292;SDS011;62290;59.420;17.842;2023-02-28T00:22:55;0.40;;;0.40;;
14292;SDS011;62290;59.420;17.842;2023-02-28T00:25:24;0.50;;;0.22;;
14292;SDS011;62290;59.420;17.842;2023-02-28T00:27:53;0.73;;;0.35;;
14292;SDS011;62290;59.420;17.842;2023-02-28T00:30:22;0.30;;;0.25;;
14292;SDS011;62290;59.420;17.842;2023-02-28T00:32:50;0.50;;;0.32;;
14292;SDS011;62290;59.420;17.842;2023-02-28T00:35:18;0.73;;;0.50;;
14292;SDS011;62290;59.420;17.842;2023-02-28T00:37:47;0.60;;;0.43;;
14292;SDS011;62290;59.420;17.842;2023-02-28T00:40:17;0.95;;;0.40;;
14292;SDS011;62290;59.420;17.842;2023-02-28T00:42:45;0.40;;;0.40;;
14292;SDS011;62290;59.420;17.842;2023-02-28T00:45:13;0.30;;;0.30;;
14292;SDS011;62290;59.420;17.842;2023-02-28T00:47:41;0.30;;;0.30;;
14292;SDS011;62290;59.420;17.842;2023-02-28T00:50:10;0.60;;;0.40;;
14292;SDS011;62290;59.420;17.842;2023-02-28T00:52:38;0.50;;;0.32;;
14292;SDS011;62290;59.420;17.842;2023-02-28T00:55:07;0.40;;;0.40;;
14292;SDS011;62290;59.420;17.842;2023-02-28T00:57:36;1.60;;;0.30;;
14292;SDS011;62290;59.420;17.842;2023-02-28T01:00:05;0.57;;;0.40;;
14292;SDS011;62290;59.420;17.842;2023-02-28T01:02:34;0.25;;;0.25;;
14292;SDS011;62290;59.420;17.842;2023-02-28T01:05:02;0.50;;;0.40;;
14292;SDS011;62290;59.420;17.842;2023-02-28T01:07:30;1.73;;;0.50;;
14292;SDS011;62290;59.420;17.842;2023-02-28T01:09:58;0.60;;;0.50;;
14292;SDS011;62290;59.420;17.842;2023-02-28T01:12:26;0.30;;;0.30;;
14292;SDS011;62290;59.420;17.842;2023-02-28T01:14:57;0.30;;;0.30;;
14292;SDS011;62290;59.420;17.842;2023-02-28T01:17:25;0.40;;;0.40;;
14292;SDS011;62290;59.420;17.842;2023-02-28T01:19:53;0.73;;;0.20;;
14292;SDS011;62290;59.420;17.842;2023-02-28T01:22:24;1.65;;;0.40;;
14292;SDS011;62290;59.420;17.842;2023-02-28T01:24:52;0.70;;;0.50;;
14292;SDS011;62290;59.420;17.842;2023-02-28T01:27:20;0.47;;;0.30;;
14292;SDS011;62290;59.420;17.842;2023-02-28T01:29:48;0.52;;;0.30;;
14292;SDS011;62290;59.420;17.842;2023-02-28T01:32:19;0.30;;;0.30;;
14292;SDS011;62290;59.420;17.842;2023-02-28T01:34:49;3.45;;;0.50;;
14292;SDS011;62290;59.420;17.842;2023-02-28T01:37:17;0.50;;;0.32;;
14292;SDS011;62290;59.420;17.842;2023-02-28T01:39:44;0.55;;;0.30;;
14292;SDS011;62290;59.420;17.842;2023-02-28T01:42:13;0.60;;;0.38;;
14292;SDS011;62290;59.420;17.842;2023-02-28T01:47:32;0.50;;;0.40;;
14292;SDS011;62290;59.420;17.842;2023-02-28T01:50:04;0.50;;;0.40;;
14292;SDS011;62290;59.420;17.842;2023-02-28T01:52:37;0.30;;;0.30;;
14292;SDS011;62290;59.420;17.842;2023-02-28T01:55:05;0.43;;;0.30;;
14292;SDS011;62290;59.420;17.842;2023-02-28T01:57:36;0.52;;;0.40;;
14292;SDS011;62290;59.420;17.842;2023-02-28T02:00:09;0.60;;;0.40;;
14292;SDS011;62290;59.420;17.842;2023-02-28T02:02:52;0.50;;;0.43;;
14292;SDS011;62290;59.420;17.842;2023-02-28T02:05:24;0.30;;;0.22;;
14292;SDS011;62290;59.420;17.842;2023-02-28T02:07:55;0.32;;;0.22;;
14292;SDS011;62290;59.420;17.842;2023-02-28T02:10:27;0.38;;;0.35;;
14292;SDS011;62290;59.420;17.842;2023-02-28T02:13:05;0.20;;;0.20;;
14292;SDS011;62290;59.420;17.842;2023-02-28T02:15:42;0.40;;;0.40;;
14292;SDS011;62290;59.420;17.842;2023-02-28T02:18:22;0.80;;;0.60;;
14292;SDS011;62290;59.420;17.842;2023-02-28T02:27:31;0.47;;;0.30;;
14292;SDS011;62290;59.420;17.842;2023-02-28T02:30:19;0.30;;;0.30;;
14292;SDS011;62290;59.420;17.842;2023-02-28T02:33:06;0.30;;;0.30;;
14292;SDS011;62290;59.420;17.842;2023-02-28T02:35:51;0.20;;;0.20;;
14292;SDS011;62290;59.420;17.842;2023-02-28T02:38:26;0.20;;;0.20;;
14292;SDS011;62290;59.420;17.842;2023-02-28T02:41:04;0.30;;;0.30;;
14292;SDS011;62290;59.420;17.842;2023-02-28T02:43:40;1.42;;;0.40;;
14292;SDS011;62290;59.420;17.842;2023-02-28T02:46:14;0.13;;;0.13;;
14292;SDS011;62290;59.420;17.842;2023-02-28T02:48:47;2.80;;;0.45;;
14292;SDS011;62290;59.420;17.842;2023-02-28T02:51:20;0.40;;;0.30;;
14292;SDS011;62290;59.420;17.842;2023-02-28T02:53:51;0.28;;;0.20;;
14292;SDS011;62290;59.420;17.842;2023-02-28T02:56:27;0.47;;;0.30;;
14292;SDS011;62290;59.420;17.842;2023-02-28T02:59:01;0.20;;;0.20;;
14292;SDS011;62290;59.420;17.842;2023-02-28T03:01:32;0.57;;;0.40;;
14292;SDS011;62290;59.420;17.842;2023-02-28T03:04:03;1.33;;;0.32;;
14292;SDS011;62290;59.420;17.842;2023-02-28T03:06:34;0.45;;;0.22;;
14292;SDS011;62290;59.420;17.842;2023-02-28T03:09:03;0.30;;;0.30;;
14292;SDS011;62290;59.420;17.842;2023-02-28T03:11:31;0.38;;;0.30;;
14292;SDS011;62290;59.420;17.842;2023-02-28T03:14:05;0.30;;;0.30;;
14292;SDS011;62290;59.420;17.842;2023-02-28T03:16:48;0.38;;;0.20;;
14292;SDS011;62290;59.420;17.842;2023-02-28T03:19:45;0.40;;;0.25;;
14292;SDS011;62290;59.420;17.842;2023-02-28T03:22:33;0.45;;;0.20;;
14292;SDS011;62290;59.420;17.842;2023-02-28T03:25:25;0.20;;;0.10;;
14292;SDS011;62290;59.420;17.842;2023-02-28T03:28:02;0.40;;;0.40;;
14292;SDS011;62290;59.420;17.842;2023-02-28T03:30:38;0.20;;;0.20;;
14292;SDS011;62290;59.420;17.842;2023-02-28T03:33:14;0.75;;;0.20;;
14292;SDS011;62290;59.420;17.842;2023-02-28T03:35:48;0.50;;;0.30;;
14292;SDS011;62290;59.420;17.842;2023-02-28T03:38:22;0.32;;;0.20;;
14292;SDS011;62290;59.420;17.842;2023-02-28T03:40:57;0.20;;;0.20;;
14292;SDS011;62290;59.420;17.842;2023-02-28T03:43:29;0.40;;;0.40;;
14292;SDS011;62290;59.420;17.842;2023-02-28T03:46:02;0.10;;;0.10;;
14292;SDS011;62290;59.420;17.842;2023-02-28T03:48:38;0.20;;;0.20;;
14292;SDS011;62290;59.420;17.842;2023-02-28T03:51:09;0.20;;;0.20;;
14292;SDS011;62290;59.420;17.842;2023-02-28T03:53:45;0.25;;;0.25;;
14292;SDS011;62290;59.420;17.842;2023-02-28T03:56:18;0.30;;;0.30;;
14292;SDS011;62290;59.420;17.842;2023-02-28T03:58:51;0.63;;;0.22;;
14292;SDS011;62290;59.420;17.842;2023-02-28T04:01:23;0.30;;;0.30;;
14292;SDS011;62290;59.420;17.842;2023-02-28T04:03:54;0.30;;;0.30;;
14292;SDS011;62290;59.420;17.842;2023-02-28T04:06:23;0.28;;;0.20;;
14292;SDS011;62290;59.420;17.842;2023-02-28T04:08:53;0.32;;;0.32;;
14292;SDS011;62290;59.420;17.842;2023-02-28T04:11:22;0.30;;;0.30;;
14292;SDS011;62290;59.420;17.842;2023-02-28T04:13:55;0.47;;;0.30;;
14292;SDS011;62290;59.420;17.842;2023-02-28T04:16:23;0.40;;;0.20;;
14292;SDS011;62290;59.420;17.842;2023-02-28T04:19:01;0.20;;;0.20;;
14292;SDS011;62290;59.420;17.842;2023-02-28T04:21:31;0.68;;;0.30;;
14292;SDS011;62290;59.420;17.842;2023-02-28T04:24:02;0.30;;;0.30;;
14292;SDS011;62290;59.420;17.842;2023-02-28T04:26:31;0.70;;;0.32;;
14292;SDS011;62290;59.420;17.842;2023-02-28T04:29:00;0.40;;;0.30;;
14292;SDS011;62290;59.420;17.842;2023-02-28T04:31:29;0.60;;;0.40;;
14292;SDS011;62290;59.420;17.842;2023-02-28T04:33:58;0.75;;;0.30;;
14292;SDS011;62290;59.420;17.842;2023-02-28T04:36:27;1.13;;;0.50;;
14292;SDS011;62290;59.420;17.842;2023-02-28T04:38:56;0.47;;;0.45;;
14292;SDS011;62290;59.420;17.842;2023-02-28T04:41:25;0.22;;;0.22;;
14292;SDS011;62290;59.420;17.842;2023-02-28T04:43:58;0.30;;;0.30;;
14292;SDS011;62290;59.420;17.842;2023-02-28T04:46:26;0.43;;;0.32;;
14292;SDS011;62290;59.420;17.842;2023-02-28T04:48:54;0.20;;;0.20;;
14292;SDS011;62290;59.420;17.842;2023-02-28T04:51:22;0.63;;;0.38;;
14292;SDS011;62290;59.420;17.842;2023-02-28T04:53:50;0.35;;;0.35;;
14292;SDS011;62290;59.420;17.842;2023-02-28T04:56:18;0.55;;;0.30;;
14292;SDS011;62290;59.420;17.842;2023-02-28T04:58:48;0.28;;;0.28;;
14292;SDS011;62290;59.420;17.842;2023-02-28T05:01:21;0.30;;;0.30;;
14292;SDS011;62290;59.420;17.842;2023-02-28T05:03:51;0.20;;;0.20;;
14292;SDS011;62290;59.420;17.842;2023-02-28T05:06:21;0.75;;;0.25;;
14292;SDS011;62290;59.420;17.842;2023-02-28T05:08:50;0.22;;;0.22;;
14292;SDS011;62290;59.420;17.842;2023-02-28T05:11:19;0.40;;;0.30;;
14292;SDS011;62290;59.420;17.842;2023-02-28T05:13:50;0.68;;;0.43;;
14292;SDS011;62290;59.420;17.842;2023-02-28T05:16:20;0.57;;;0.30;;
14292;SDS011;62290;59.420;17.842;2023-02-28T05:18:48;0.40;;;0.40;;
14292;SDS011;62290;59.420;17.842;2023-02-28T05:21:26;0.17;;;0.17;;
14292;SDS011;62290;59.420;17.842;2023-02-28T05:23:57;0.80;;;0.32;;
14292;SDS011;62290;59.420;17.842;2023-02-28T05:26:27;0.30;;;0.22;;
14292;SDS011;62290;59.420;17.842;2023-02-28T05:28:57;0.30;;;0.25;;
14292;SDS011;62290;59.420;17.842;2023-02-28T05:31:25;0.20;;;0.20;;
14292;SDS011;62290;59.420;17.842;2023-02-28T05:33:54;0.20;;;0.20;;
14292;SDS011;62290;59.420;17.842;2023-02-28T05:36:22;0.40;;;0.32;;
14292;SDS011;62290;59.420;17.842;2023-02-28T05:38:50;0.20;;;0.20;;
14292;SDS011;62290;59.420;17.842;2023-02-28T05:41:19;0.28;;;0.20;;
14292;SDS011;62290;59.420;17.842;2023-02-28T05:43:48;0.13;;;0.13;;
14292;SDS011;62290;59.420;17.842;2023-02-28T05:46:18;0.20;;;0.20;;
14292;SDS011;62290;59.420;17.842;2023-02-28T05:48:46;0.20;;;0.20;;
14292;SDS011;62290;59.420;17.842;2023-02-28T05:51:15;0.30;;;0.30;;
14292;SDS011;62290;59.420;17.842;2023-02-28T05:53:44;1.30;;;0.40;;
14292;SDS011;62290;59.420;17.842;2023-02-28T05:56:12;0.20;;;0.20;;
14292;SDS011;62290;59.420;17.842;2023-02-28T05:58:40;0.30;;;0.30;;
14292;SDS011;62290;59.420;17.842;2023-02-28T06:01:23;0.20;;;0.20;;
14292;SDS011;62290;59.420;17.842;2023-02-28T06:03:58;2.65;;;0.40;;
14292;SDS011;62290;59.420;17.842;2023-02-28T06:06:26;0.80;;;0.30;;
14292;SDS011;62290;59.420;17.842;2023-02-28T06:08:54;0.35;;;0.20;;
14292;SDS011;62290;59.420;17.842;2023-02-28T06:11:22;0.45;;;0.20;;
14292;SDS011;62290;59.420;17.842;2023-02-28T06:13:54;0.30;;;0.10;;
14292;SDS011;62290;59.420;17.842;2023-02-28T06:16:24;0.20;;;0.20;;
14292;SDS011;62290;59.420;17.842;2023-02-28T06:18:53;0.32;;;0.30;;
14292;SDS011;62290;59.420;17.842;2023-02-28T06:21:22;0.60;;;0.30;;
14292;SDS011;62290;59.420;17.842;2023-02-28T06:23:51;0.25;;;0.20;;
14292;SDS011;62290;59.420;17.842;2023-02-28T06:26:19;0.32;;;0.25;;
14292;SDS011;62290;59.420;17.842;2023-02-28T06:28:47;0.70;;;0.30;;
14292;SDS011;62290;59.420;17.842;2023-02-28T06:31:16;0.50;;;0.20;;
14292;SDS011;62290;59.420;17.842;2023-02-28T06:33:47;0.20;;;0.20;;
14292;SDS011;62290;59.420;17.842;2023-02-28T06:36:15;0.20;;;0.20;;
14292;SDS011;62290;59.420;17.842;2023-02-28T06:38:44;0.20;;;0.20;;
14292;SDS011;62290;59.420;17.842;2023-02-28T06:41:12;0.30;;;0.30;;
14292;SDS011;62290;59.420;17.842;2023-02-28T06:43:40;0.55;;;0.20;;
14292;SDS011;62290;59.420;17.842;2023-02-28T06:46:10;0.20;;;0.17;;
14292;SDS011;62290;59.420;17.842;2023-02-28T06:48:41;0.88;;;0.30;;
14292;SDS011;62290;59.420;17.842;2023-02-28T06:51:12;0.35;;;0.10;;
14292;SDS011;62290;59.420;17.842;2023-02-28T06:53:42;0.55;;;0.28;;
14292;SDS011;62290;59.420;17.842;2023-02-28T06:56:11;0.32;;;0.30;;
14292;SDS011;62290;59.420;17.842;2023-02-28T06:58:40;0.52;;;0.38;;
14292;SDS011;62290;59.420;17.842;2023-02-28T07:01:08;0.43;;;0.30;;
14292;SDS011;62290;59.420;17.842;2023-02-28T07:03:36;1.63;;;0.30;;
14292;SDS011;62290;59.420;17.842;2023-02-28T07:06:04;0.52;;;0.40;;
14292;SDS011;62290;59.420;17.842;2023-02-28T07:08:34;0.32;;;0.30;;
14292;SDS011;62290;59.420;17.842;2023-02-28T07:11:03;0.47;;;0.30;;
14292;SDS011;62290;59.420;17.842;2023-02-28T07:13:31;1.35;;;0.50;;
14292;SDS011;62290;59.420;17.842;2023-02-28T07:16:00;0.40;;;0.40;;
14292;SDS011;62290;59.420;17.842;2023-02-28T07:18:30;0.38;;;0.38;;
14292;SDS011;62290;59.420;17.842;2023-02-28T07:21:01;0.30;;;0.30;;
14292;SDS011;62290;59.420;17.842;2023-02-28T07:23:29;0.20;;;0.20;;
14292;SDS011;62290;59.420;17.842;2023-02-28T07:25:59;0.30;;;0.30;;
14292;SDS011;62290;59.420;17.842;2023-02-28T07:28:27;0.43;;;0.30;;
14292;SDS011;62290;59.420;17.842;2023-02-28T07:30:55;0.30;;;0.25;;
14292;SDS011;62290;59.420;17.842;2023-02-28T07:33:24;0.50;;;0.30;;
14292;SDS011;62290;59.420;17.842;2023-02-28T07:35:52;0.20;;;0.20;;
14292;SDS011;62290;59.420;17.842;2023-02-28T07:38:27;0.98;;;0.35;;
14292;SDS011;62290;59.420;17.842;2023-02-28T07:40:55;0.35;;;0.20;;
14292;SDS011;62290;59.420;17.842;2023-02-28T07:43:24;0.20;;;0.20;;
14292;SDS011;62290;59.420;17.842;2023-02-28T07:45:52;4.25;;;0.70;;
14292;SDS011;62290;59.420;17.842;2023-02-28T07:48:20;1.77;;;0.35;;
14292;SDS011;62290;59.420;17.842;2023-02-28T07:50:53;0.10;;;0.10;;
14292;SDS011;62290;59.420;17.842;2023-02-28T07:53:23;0.30;;;0.30;;
14292;SDS011;62290;59.420;17.842;2023-02-28T07:55:51;0.30;;;0.30;;
14292;SDS011;62290;59.420;17.842;2023-02-28T07:58:22;0.30;;;0.30;;
14292;SDS011;62290;59.420;17.842;2023-02-28T08:00:52;3.60;;;0.32;;
14292;SDS011;62290;59.420;17.842;2023-02-28T08:03:21;1.80;;;0.60;;
14292;SDS011;62290;59.420;17.842;2023-02-28T08:05:50;1.55;;;0.40;;
14292;SDS011;62290;59.420;17.842;2023-02-28T08:08:18;3.95;;;0.55;;
14292;SDS011;62290;59.420;17.842;2023-02-28T08:10:47;6.60;;;0.60;;
14292;SDS011;62290;59.420;17.842;2023-02-28T08:13:15;2.53;;;0.60;;
14292;SDS011;62290;59.420;17.842;2023-02-28T08:15:43;1.75;;;0.25;;
14292;SDS011;62290;59.420;17.842;2023-02-28T08:18:13;1.40;;;0.38;;
14292;SDS011;62290;59.420;17.842;2023-02-28T08:20:41;5.05;;;0.55;;
14292;SDS011;62290;59.420;17.842;2023-02-28T08:23:09;2.17;;;0.38;;
14292;SDS011;62290;59.420;17.842;2023-02-28T08:25:37;3.10;;;0.43;;
14292;SDS011;62290;59.420;17.842;2023-02-28T08:28:05;0.30;;;0.30;;
14292;SDS011;62290;59.420;17.842;2023-02-28T08:30:33;1.33;;;0.50;;
14292;SDS011;62290;59.420;17.842;2023-02-28T08:33:01;0.77;;;0.40;;
14292;SDS011;62290;59.420;17.842;2023-02-28T08:35:30;0.85;;;0.28;;
14292;SDS011;62290;59.420;17.842;2023-02-28T08:37:58;0.60;;;0.20;;
14292;SDS011;62290;59.420;17.842;2023-02-28T08:40:26;2.00;;;0.40;;
14292;SDS011;62290;59.420;17.842;2023-02-28T08:42:54;1.70;;;0.30;;
14292;SDS011;62290;59.420;17.842;2023-02-28T08:45:23;0.95;;;0.30;;
14292;SDS011;62290;59.420;17.842;2023-02-28T08:47:51;1.02;;;0.43;;
14292;SDS011;62290;59.420;17.842;2023-02-28T08:50:21;1.95;;;0.25;;
14292;SDS011;62290;59.420;17.842;2023-02-28T08:52:51;0.45;;;0.20;;
14292;SDS011;62290;59.420;17.842;2023-02-28T08:55:19;0.90;;;0.30;;
14292;SDS011;62290;59.420;17.842;2023-02-28T08:57:47;0.65;;;0.47;;
14292;SDS011;62290;59.420;17.842;2023-02-28T09:00:15;0.35;;;0.15;;
14292;SDS011;62290;59.420;17.842;2023-02-28T09:02:43;0.55;;;0.30;;
14292;SDS011;62290;59.420;17.842;2023-02-28T09:05:11;0.77;;;0.38;;
14292;SDS011;62290;59.420;17.842;2023-02-28T09:07:39;2.53;;;0.20;;
14292;SDS011;62290;59.420;17.842;2023-02-28T09:10:09;0.70;;;0.30;;
14292;SDS011;62290;59.420;17.842;2023-02-28T09:12:38;0.47;;;0.30;;
14292;SDS011;62290;59.420;17.842;2023-02-28T09:15:07;0.17;;;0.15;;
14292;SDS011;62290;59.420;17.842;2023-02-28T09:17:36;0.22;;;0.13;;
14292;SDS011;62290;59.420;17.842;2023-02-28T09:20:04;0.28;;;0.13;;
14292;SDS011;62290;59.420;17.842;2023-02-28T09:22:33;0.17;;;0.10;;
14292;SDS011;62290;59.420;17.842;2023-02-28T09:25:01;0.40;;;0.40;;
14292;SDS011;62290;59.420;17.842;2023-02-28T09:27:31;1.00;;;0.30;;
14292;SDS011;62290;59.420;17.842;2023-02-28T09:29:59;1.17;;;0.40;;
14292;SDS011;62290;59.420;17.842;2023-02-28T09:32:27;1.83;;;0.63;;
14292;SDS011;62290;59.420;17.842;2023-02-28T09:34:55;1.35;;;0.30;;
14292;SDS011;62290;59.420;17.842;2023-02-28T09:37:23;1.00;;;0.30;;
14292;SDS011;62290;59.420;17.842;2023-02-28T09:39:52;0.30;;;0.30;;
14292;SDS011;62290;59.420;17.842;2023-02-28T09:42:30;3.92;;;0.52;;
14292;SDS011;62290;59.420;17.842;2023-02-28T09:45:02;0.93;;;0.38;;
14292;SDS011;62290;59.420;17.842;2023-02-28T09:47:40;1.80;;;0.30;;
14292;SDS011;62290;59.420;17.842;2023-02-28T09:50:16;3.58;;;0.40;;
14292;SDS011;62290;59.420;17.842;2023-02-28T09:52:59;1.17;;;0.40;;
14292;SDS011;62290;59.420;17.842;2023-02-28T09:55:33;0.35;;;0.20;;
14292;SDS011;62290;59.420;17.842;2023-02-28T09:58:15;0.82;;;0.47;;
14292;SDS011;62290;59.420;17.842;2023-02-28T10:00:49;1.08;;;0.30;;
14292;SDS011;62290;59.420;17.842;2023-02-28T10:03:26;0.20;;;0.20;;
14292;SDS011;62290;59.420;17.842;2023-02-28T10:06:02;0.55;;;0.30;;
14292;SDS011;62290;59.420;17.842;2023-02-28T10:08:36;0.52;;;0.30;;
14292;SDS011;62290;59.420;17.842;2023-02-28T10:11:12;3.58;;;0.43;;
14292;SDS011;62290;59.420;17.842;2023-02-28T10:13:48;0.80;;;0.40;;
14292;SDS011;62290;59.420;17.842;2023-02-28T10:16:24;4.38;;;0.43;;
14292;SDS011;62290;59.420;17.842;2023-02-28T10:18:59;2.13;;;0.43;;
14292;SDS011;62290;59.420;17.842;2023-02-28T10:21:31;1.65;;;0.40;;
14292;SDS011;62290;59.420;17.842;2023-02-28T10:24:05;1.92;;;0.30;;
14292;SDS011;62290;59.420;17.842;2023-02-28T10:26:46;0.90;;;0.30;;
14292;SDS011;62290;59.420;17.842;2023-02-28T10:29:17;0.57;;;0.40;;
14292;SDS011;62290;59.420;17.842;2023-02-28T10:31:45;2.50;;;0.70;;
14292;SDS011;62290;59.420;17.842;2023-02-28T10:34:13;0.47;;;0.30;;
14292;SDS011;62290;59.420;17.842;2023-02-28T10:36:41;3.75;;;0.40;;
14292;SDS011;62290;59.420;17.842;2023-02-28T10:42:04;4.28;;;0.57;;
14292;SDS011;62290;59.420;17.842;2023-02-28T10:44:45;1.23;;;0.30;;
14292;SDS011;62290;59.420;17.842;2023-02-28T10:47:14;1.45;;;0.30;;
14292;SDS011;62290;59.420;17.842;2023-02-28T10:49:47;3.42;;;1.25;;
14292;SDS011;62290;59.420;17.842;2023-02-28T10:55:13;1.85;;;0.63;;
14292;SDS011;62290;59.420;17.842;2023-02-28T10:57:43;0.85;;;0.50;;
14292;SDS011;62290;59.420;17.842;2023-02-28T11:00:15;2.50;;;0.55;;
14292;SDS011;62290;59.420;17.842;2023-02-28T11:02:45;0.63;;;0.35;;
14292;SDS011;62290;59.420;17.842;2023-02-28T11:05:23;0.90;;;0.40;;
14292;SDS011;62290;59.420;17.842;2023-02-28T11:07:54;0.30;;;0.30;;
14292;SDS011;62290;59.420;17.842;2023-02-28T11:10:24;0.77;;;0.40;;
14292;SDS011;62290;59.420;17.842;2023-02-28T11:12:56;0.80;;;0.25;;
14292;SDS011;62290;59.420;17.842;2023-02-28T11:15:28;0.77;;;0.20;;
14292;SDS011;62290;59.420;17.842;2023-02-28T11:17:59;1.67;;;0.20;;
14292;SDS011;62290;59.420;17.842;2023-02-28T11:20:30;0.88;;;0.40;;
14292;SDS011;62290;59.420;17.842;2023-02-28T11:23:00;1.27;;;0.40;;
14292;SDS011;62290;59.420;17.842;2023-02-28T11:25:31;1.10;;;0.30;;
14292;SDS011;62290;59.420;17.842;2023-02-28T11:28:02;0.52;;;0.32;;
14292;SDS011;62290;59.420;17.842;2023-02-28T11:30:35;0.60;;;0.50;;
14292;SDS011;62290;59.420;17.842;2023-02-28T11:33:23;0.73;;;0.60;;
14292;SDS011;62290;59.420;17.842;2023-02-28T11:35:56;6.60;;;0.65;;
14292;SDS011;62290;59.420;17.842;2023-02-28T11:38:26;7.18;;;1.27;;
14292;SDS011;62290;59.420;17.842;2023-02-28T11:41:02;11.07;;;1.20;;
14292;SDS011;62290;59.420;17.842;2023-02-28T11:43:53;6.13;;;1.17;;
14292;SDS011;62290;59.420;17.842;2023-02-28T11:46:33;3.60;;;0.93;;
14292;SDS011;62290;59.420;17.842;2023-02-28T11:49:14;5.53;;;0.90;;
14292;SDS011;62290;59.420;17.842;2023-02-28T11:52:06;5.75;;;1.52;;
14292;SDS011;62290;59.420;17.842;2023-02-28T11:54:47;7.07;;;1.27;;
14292;SDS011;62290;59.420;17.842;2023-02-28T11:57:35;3.15;;;0.73;;
14292;SDS011;62290;59.420;17.842;2023-02-28T12:00:23;3.58;;;0.60;;
14292;SDS011;62290;59.420;17.842;2023-02-28T12:03:04;2.22;;;0.70;;
14292;SDS011;62290;59.420;17.842;2023-02-28T12:05:50;2.50;;;0.60;;
14292;SDS011;62290;59.420;17.842;2023-02-28T12:08:26;3.40;;;1.00;;
14292;SDS011;62290;59.420;17.842;2023-02-28T12:11:09;2.08;;;0.73;;
14292;SDS011;62290;59.420;17.842;2023-02-28T12:13:48;1.02;;;0.55;;
14292;SDS011;62290;59.420;17.842;2023-02-28T12:16:29;2.55;;;0.50;;
14292;SDS011;62290;59.420;17.842;2023-02-28T12:19:20;1.38;;;0.35;;
14292;SDS011;62290;59.420;17.842;2023-02-28T12:21:59;1.63;;;0.70;;
14292;SDS011;62290;59.420;17.842;2023-02-28T12:24:44;1.60;;;0.63;;
14292;SDS011;62290;59.420;17.842;2023-02-28T12:27:28;1.17;;;0.50;;
14292;SDS011;62290;59.420;17.842;2023-02-28T12:30:02;2.28;;;0.52;;
14292;SDS011;62290;59.420;17.842;2023-02-28T12:32:34;3.10;;;0.50;;
14292;SDS011;62290;59.420;17.842;2023-02-28T12:35:11;0.98;;;0.50;;
14292;SDS011;62290;59.420;17.842;2023-02-28T12:37:41;2.33;;;0.60;;
14292;SDS011;62290;59.420;17.842;2023-02-28T12:40:15;0.63;;;0.55;;
14292;SDS011;62290;59.420;17.842;2023-02-28T12:42:47;1.45;;;0.40;;
14292;SDS011;62290;59.420;17.842;2023-02-28T12:45:19;0.77;;;0.55;;
14292;SDS011;62290;59.420;17.842;2023-02-28T12:47:50;0.98;;;0.50;;
14292;SDS011;62290;59.420;17.842;2023-02-28T12:50:26;1.15;;;0.40;;
14292;SDS011;62290;59.420;17.842;2023-02-28T12:52:59;0.85;;;0.28;;
14292;SDS011;62290;59.420;17.842;2023-02-28T12:55:32;1.33;;;0.35;;
14292;SDS011;62290;59.420;17.842;2023-02-28T12:58:09;3.88;;;1.25;;
14292;SDS011;62290;59.420;17.842;2023-02-28T13:00:49;0.22;;;0.22;;
14292;SDS011;62290;59.420;17.842;2023-02-28T13:03:51;0.75;;;0.35;;
14292;SDS011;62290;59.420;17.842;2023-02-28T13:06:43;1.40;;;0.50;;
14292;SDS011;62290;59.420;17.842;2023-02-28T13:09:21;0.32;;;0.20;;
14292;SDS011;62290;59.420;17.842;2023-02-28T13:11:49;1.73;;;0.40;;
14292;SDS011;62290;59.420;17.842;2023-02-28T13:14:23;0.38;;;0.30;;
14292;SDS011;62290;59.420;17.842;2023-02-28T13:16:57;0.68;;;0.40;;
14292;SDS011;62290;59.420;17.842;2023-02-28T13:19:29;0.32;;;0.30;;
14292;SDS011;62290;59.420;17.842;2023-02-28T13:22:01;0.40;;;0.32;;
14292;SDS011;62290;59.420;17.842;2023-02-28T13:24:38;0.50;;;0.28;;
14292;SDS011;62290;59.420;17.842;2023-02-28T13:36:09;0.88;;;0.50;;
14292;SDS011;62290;59.420;17.842;2023-02-28T13:38:51;0.52;;;0.40;;
14292;SDS011;62290;59.420;17.842;2023-02-28T13:44:10;2.08;;;0.50;;
14292;SDS011;62290;59.420;17.842;2023-02-28T13:49:44;6.72;;;1.33;;
14292;SDS011;62290;59.420;17.842;2023-02-28T13:52:14;4.78;;;1.52;;
14292;SDS011;62290;59.420;17.842;2023-02-28T13:54:53;4.43;;;1.17;;
14292;SDS011;62290;59.420;17.842;2023-02-28T13:57:32;3.67;;;0.90;;
14292;SDS011;62290;59.420;17.842;2023-02-28T14:00:16;3.30;;;1.27;;
14292;SDS011;62290;59.420;17.842;2023-02-28T14:05:51;4.68;;;1.52;;
14292;SDS011;62290;59.420;17.842;2023-02-28T14:08:37;5.38;;;1.83;;
14292;SDS011;62290;59.420;17.842;2023-02-28T14:11:08;7.20;;;1.48;;
14292;SDS011;62290;59.420;17.842;2023-02-28T14:13:51;4.05;;;1.40;;
14292;SDS011;62290;59.420;17.842;2023-02-28T14:16:20;1.85;;;1.08;;
14292;SDS011;62290;59.420;17.842;2023-02-28T14:18:51;3.83;;;0.98;;
14292;SDS011;62290;59.420;17.842;2023-02-28T14:21:26;2.50;;;1.15;;
14292;SDS011;62290;59.420;17.842;2023-02-28T14:24:07;1.52;;;0.80;;
14292;SDS011;62290;59.420;17.842;2023-02-28T14:27:05;1.92;;;0.90;;
14292;SDS011;62290;59.420;17.842;2023-02-28T14:32:41;2.58;;;1.00;;
14292;SDS011;62290;59.420;17.842;2023-02-28T14:35:35;3.72;;;1.00;;
14292;SDS011;62290;59.420;17.842;2023-02-28T14:38:16;1.67;;;0.63;;
14292;SDS011;62290;59.420;17.842;2023-02-28T14:40:47;3.80;;;0.88;;
14292;SDS011;62290;59.420;17.842;2023-02-28T14:43:20;1.73;;;0.80;;
14292;SDS011;62290;59.420;17.842;2023-02-28T14:45:50;3.28;;;0.82;;
14292;SDS011;62290;59.420;17.842;2023-02-28T14:48:20;4.35;;;0.98;;
14292;SDS011;62290;59.420;17.842;2023-02-28T14:50:52;2.55;;;0.80;;
14292;SDS011;62290;59.420;17.842;2023-02-28T14:53:23;3.33;;;0.98;;
14292;SDS011;62290;59.420;17.842;2023-02-28T14:55:54;1.88;;;0.82;;
14292;SDS011;62290;59.420;17.842;2023-02-28T14:58:25;2.25;;;1.00;;
14292;SDS011;62290;59.420;17.842;2023-02-28T15:00:55;4.25;;;0.95;;
14292;SDS011;62290;59.420;17.842;2023-02-28T15:03:30;3.72;;;0.95;;
14292;SDS011;62290;59.420;17.842;2023-02-28T15:06:00;3.08;;;0.80;;
14292;SDS011;62290;59.420;17.842;2023-02-28T15:08:31;2.88;;;1.13;;
14292;SDS011;62290;59.420;17.842;2023-02-28T15:11:03;2.95;;;1.10;;
14292;SDS011;62290;59.420;17.842;2023-02-28T15:13:36;7.63;;;0.90;;
14292;SDS011;62290;59.420;17.842;2023-02-28T15:16:08;2.47;;;0.57;;
14292;SDS011;62290;59.420;17.842;2023-02-28T15:18:44;2.67;;;0.68;;
14292;SDS011;62290;59.420;17.842;2023-02-28T15:21:17;4.50;;;1.05;;
14292;SDS011;62290;59.420;17.842;2023-02-28T15:23:48;4.10;;;1.00;;
14292;SDS011;62290;59.420;17.842;2023-02-28T15:26:20;2.90;;;1.08;;
14292;SDS011;62290;59.420;17.842;2023-02-28T15:28:51;4.07;;;0.70;;
14292;SDS011;62290;59.420;17.842;2023-02-28T15:31:26;4.20;;;0.93;;
14292;SDS011;62290;59.420;17.842;2023-02-28T15:34:05;5.35;;;1.00;;
14292;SDS011;62290;59.420;17.842;2023-02-28T15:36:34;5.45;;;0.63;;
14292;SDS011;62290;59.420;17.842;2023-02-28T15:41:46;7.22;;;1.17;;